Time;durP1;ratioP1;P1;durP2;ratioP2;P2;SDS_P1;SDS_P2;PMS_P1;PMS_P2;Temp;Humidity;BMP_temperature;BMP_pressure;BME280_temperature;BME280_humidity;BME280_pressure;Samples;Min_cycle;Max_cycle;Signal;HPM_P1;HPM_P2
2022/09/03 00:00:35;;;;;;;2.90;1.70;;;15.20;99.90;;;;;;4937136;29;20754;-79
2022/09/03 00:03:11;;;;;;;2.95;1.80;;;15.20;99.90;;;;;;4987076;28;20034;-81
2022/09/03 00:05:55;;;;;;;3.05;1.83;;;15.20;99.90;;;;;;4979358;28;20062;-81
2022/09/03 00:08:32;;;;;;;4.85;1.63;;;15.20;99.90;;;;;;4989891;28;20018;-79
2022/09/03 00:11:13;;;;;;;3.60;1.88;;;15.10;99.90;;;;;;4992667;28;20034;-78
2022/09/03 00:13:52;;;;;;;5.90;1.80;;;15.00;99.90;;;;;;5007681;28;20078;-78
2022/09/03 00:16:23;;;;;;;6.85;1.92;;;15.00;99.90;;;;;;5001011;28;20098;-80
2022/09/03 00:19:01;;;;;;;4.53;2.00;;;14.90;99.90;;;;;;4985572;28;20708;-80
2022/09/03 00:21:44;;;;;;;5.05;1.90;;;14.90;99.90;;;;;;4977960;28;20087;-79
2022/09/03 00:24:13;;;;;;;4.10;1.92;;;14.90;99.90;;;;;;4997925;28;20034;-81
2022/09/03 00:26:47;;;;;;;3.15;1.70;;;14.90;99.90;;;;;;5004272;28;20138;-78
2022/09/03 00:29:48;;;;;;;3.13;1.88;;;14.80;99.90;;;;;;4978254;28;20048;-78
2022/09/03 00:32:36;;;;;;;4.65;1.90;;;14.80;99.90;;;;;;4950370;29;20047;-78
2022/09/03 00:35:05;;;;;;;4.95;1.88;;;14.70;99.90;;;;;;5006948;28;20086;-79
2022/09/03 00:37:33;;;;;;;4.70;1.90;;;14.70;99.90;;;;;;5010231;28;20050;-77
2022/09/03 00:39:59;;;;;;;4.07;1.85;;;14.60;99.90;;;;;;4984614;28;20030;-80
2022/09/03 00:42:49;;;;;;;5.05;1.67;;;14.60;99.90;;;;;;4996854;28;20031;-81
2022/09/03 00:45:44;;;;;;;6.15;2.65;;;14.50;99.90;;;;;;5009008;28;20052;-77
2022/09/03 00:48:22;;;;;;;7.97;2.13;;;14.50;99.90;;;;;;4994186;28;20374;-79
2022/09/03 00:51:00;;;;;;;3.65;1.60;;;14.50;99.90;;;;;;4996928;28;20038;-79
2022/09/03 00:53:34;;;;;;;8.30;2.53;;;14.40;99.90;;;;;;4997507;28;20019;-80
2022/09/03 00:56:18;;;;;;;9.18;2.58;;;14.40;99.90;;;;;;4996448;28;20029;-78
2022/09/03 00:59:06;;;;;;;6.10;2.67;;;14.40;99.90;;;;;;4978592;28;20371;-78
2022/09/03 01:01:46;;;;;;;23.48;3.08;;;14.40;99.90;;;;;;4983833;28;20034;-78
2022/09/03 01:04:27;;;;;;;4.90;2.45;;;14.30;99.90;;;;;;4999639;28;20030;-78
2022/09/03 01:06:59;;;;;;;5.28;2.20;;;14.30;99.90;;;;;;4998523;28;20034;-81
2022/09/03 01:10:00;;;;;;;6.85;2.67;;;14.20;99.90;;;;;;5015383;28;20037;-78
2022/09/03 01:13:01;;;;;;;4.63;2.05;;;14.20;99.90;;;;;;5003050;28;20030;-81
2022/09/03 01:15:32;;;;;;;4.30;1.88;;;14.20;99.90;;;;;;5019856;28;20049;-78
2022/09/03 01:18:09;;;;;;;3.35;2.03;;;14.10;99.90;;;;;;5002686;28;20042;-80
2022/09/03 01:21:06;;;;;;;4.80;2.60;;;14.10;99.90;;;;;;5017236;28;20038;-79
2022/09/03 01:23:56;;;;;;;7.38;2.40;;;14.00;99.90;;;;;;5017740;28;20018;-79
2022/09/03 01:26:37;;;;;;;11.75;3.58;;;14.00;99.90;;;;;;5017259;28;20129;-79
2022/09/03 01:29:25;;;;;;;10.40;4.28;;;14.00;99.90;;;;;;5000695;28;20064;-77
2022/09/03 01:32:14;;;;;;;11.95;3.38;;;14.00;99.90;;;;;;5003435;28;20034;-79
2022/09/03 01:34:52;;;;;;;6.97;2.50;;;13.90;99.90;;;;;;5005062;28;20033;-79
2022/09/03 01:37:27;;;;;;;3.72;2.38;;;13.90;99.90;;;;;;4994669;28;20037;-80
2022/09/03 01:40:28;;;;;;;6.00;2.22;;;13.80;99.90;;;;;;4990856;28;20133;-80
2022/09/03 01:42:59;;;;;;;9.65;2.28;;;13.80;99.90;;;;;;4971267;28;20050;-81
2022/09/03 01:46:03;;;;;;;10.15;1.98;;;13.80;99.90;;;;;;5004572;28;20048;-78
2022/09/03 01:48:50;;;;;;;3.80;2.10;;;13.80;99.90;;;;;;4960197;29;20020;-80
2022/09/03 01:51:24;;;;;;;6.18;2.40;;;13.70;99.90;;;;;;5014268;28;20061;-78
2022/09/03 01:54:11;;;;;;;8.77;3.85;;;13.70;99.90;;;;;;5012598;28;20045;-79
2022/09/03 01:57:00;;;;;;;11.95;4.57;;;13.70;99.90;;;;;;5011086;28;20077;-80
2022/09/03 01:59:50;;;;;;;4.88;2.45;;;13.70;99.90;;;;;;4990294;28;20043;-79
2022/09/03 02:02:22;;;;;;;4.68;2.30;;;13.70;99.90;;;;;;5004505;28;20010;-78
2022/09/03 02:05:14;;;;;;;16.05;5.90;;;13.60;99.90;;;;;;5020494;28;20061;-80
2022/09/03 02:07:43;;;;;;;21.67;7.90;;;13.60;99.90;;;;;;4997733;28;20050;-79
2022/09/03 02:10:19;;;;;;;4.72;2.72;;;13.60;99.90;;;;;;4997971;28;20022;-77
2022/09/03 02:12:51;;;;;;;8.57;2.35;;;13.60;99.90;;;;;;4996394;28;20058;-79
2022/09/03 02:15:20;;;;;;;6.55;2.42;;;13.70;99.90;;;;;;4999827;28;20054;-78
2022/09/03 02:17:48;;;;;;;3.45;2.30;;;13.70;99.90;;;;;;5015067;28;20082;-81
2022/09/03 02:20:23;;;;;;;6.82;2.35;;;13.60;99.90;;;;;;5013376;28;20126;-80
2022/09/03 02:22:49;;;;;;;6.15;2.55;;;13.60;99.90;;;;;;4990888;28;20119;-79
2022/09/03 02:25:16;;;;;;;6.60;1.92;;;13.60;99.90;;;;;;5001225;28;20033;-80
2022/09/03 02:27:43;;;;;;;4.07;2.42;;;13.60;99.90;;;;;;5001968;28;20030;-78
2022/09/03 02:30:10;;;;;;;6.65;2.47;;;13.60;99.90;;;;;;5003452;28;20026;-80
2022/09/03 02:32:37;;;;;;;4.60;2.10;;;13.60;99.90;;;;;;5041275;22;20491;-82
2022/09/03 02:35:03;;;;;;;6.97;2.13;;;13.60;99.90;;;;;;4988616;28;20030;-82
2022/09/03 02:37:29;;;;;;;3.83;2.00;;;13.60;99.90;;;;;;5025840;28;20044;-82
2022/09/03 02:39:55;;;;;;;3.45;2.17;;;13.60;99.90;;;;;;5025040;28;20042;-80
2022/09/03 02:42:21;;;;;;;7.65;2.15;;;13.60;99.90;;;;;;5033063;28;20030;-81
2022/09/03 02:44:56;;;;;;;4.90;2.30;;;13.50;99.90;;;;;;5014932;28;20030;-82
2022/09/03 02:47:22;;;;;;;;;;;13.50;99.90;;;;;;5032069;28;20056;-82
2022/09/03 02:49:48;;;;;;;5.10;2.88;;;13.40;99.90;;;;;;5033895;28;19909;-83
2022/09/03 02:52:15;;;;;;;4.05;2.50;;;13.40;99.90;;;;;;5024400;28;20469;-83
2022/09/03 02:54:41;;;;;;;5.80;2.70;;;13.50;99.90;;;;;;5006956;28;20389;-80
2022/09/03 02:57:13;;;;;;;4.85;2.63;;;13.40;99.90;;;;;;5023737;28;20397;-83
2022/09/03 02:59:40;;;;;;;7.10;2.53;;;13.50;99.90;;;;;;5024734;28;20060;-82
2022/09/03 03:02:06;;;;;;;4.40;2.35;;;13.40;99.90;;;;;;5027725;28;20046;-81
2022/09/03 03:04:32;;;;;;;6.22;2.47;;;13.30;99.90;;;;;;5023667;28;20034;-82
2022/09/03 03:06:58;;;;;;;8.15;2.70;;;13.30;99.90;;;;;;5025029;28;20030;-79
2022/09/03 03:09:24;;;;;;;8.52;2.58;;;13.30;99.90;;;;;;5031792;28;20033;-81
2022/09/03 03:11:50;;;;;;;4.10;2.45;;;13.30;99.90;;;;;;5025962;28;20026;-82
2022/09/03 03:14:19;;;;;;;5.85;2.33;;;13.30;99.90;;;;;;5017369;28;20060;-81
2022/09/03 03:16:44;;;;;;;10.77;3.28;;;13.30;99.90;;;;;;5004255;28;20112;-82
2022/09/03 03:19:10;;;;;;;7.50;2.53;;;13.20;99.90;;;;;;5022558;28;20057;-82
2022/09/03 03:21:36;;;;;;;10.48;2.65;;;13.20;99.90;;;;;;5022038;28;20026;-82
2022/09/03 03:24:02;;;;;;;4.95;2.28;;;13.20;99.90;;;;;;5022676;28;20037;-82
2022/09/03 03:26:28;;;;;;;3.85;2.38;;;13.10;99.90;;;;;;5023702;28;20037;-83
2022/09/03 03:28:59;;;;;;;4.97;2.40;;;13.10;99.90;;;;;;5024191;28;20030;-82
2022/09/03 03:31:26;;;;;;;6.47;3.25;;;13.10;99.90;;;;;;5022286;28;20040;-82
2022/09/03 03:33:57;;;;;;;6.45;2.47;;;13.00;99.90;;;;;;5022294;28;20022;-82
2022/09/03 03:36:25;;;;;;;5.22;2.38;;;13.00;99.90;;;;;;5006384;28;20030;-81
2022/09/03 03:38:55;;;;;;;12.10;2.85;;;12.90;99.90;;;;;;5023558;28;20441;-82
2022/09/03 03:41:32;;;;;;;8.15;3.15;;;12.90;99.90;;;;;;5027078;28;20084;-84
2022/09/03 03:44:04;;;;;;;2.72;2.10;;;13.00;99.90;;;;;;5027953;28;20041;-82
2022/09/03 03:46:38;;;;;;;4.47;2.40;;;12.90;99.90;;;;;;5030393;28;20034;-81
2022/09/03 03:49:05;;;;;;;8.57;2.58;;;12.90;99.90;;;;;;5029759;28;20026;-82
2022/09/03 03:51:31;;;;;;;6.95;3.00;;;12.90;99.90;;;;;;5027804;28;20021;-82
2022/09/03 03:53:58;;;;;;;3.42;2.50;;;12.90;99.90;;;;;;5030174;28;20172;-82
2022/09/03 03:56:25;;;;;;;7.78;3.47;;;12.90;99.90;;;;;;5028347;28;20022;-83
2022/09/03 03:58:52;;;;;;;11.20;2.83;;;12.80;99.90;;;;;;5014700;28;20032;-82
2022/09/03 04:01:23;;;;;;;7.53;2.60;;;12.80;99.90;;;;;;5037928;28;20018;-82
2022/09/03 04:03:49;;;;;;;7.95;2.95;;;12.70;99.90;;;;;;5038538;28;20029;-84
2022/09/03 04:06:18;;;;;;;5.07;2.95;;;12.70;99.90;;;;;;5038450;28;20185;-82
2022/09/03 04:08:45;;;;;;;7.65;3.10;;;12.80;99.90;;;;;;5037978;28;20073;-81
2022/09/03 04:11:14;;;;;;;6.15;2.85;;;12.70;99.90;;;;;;5037964;28;20033;-81
2022/09/03 04:13:41;;;;;;;4.72;2.90;;;12.70;99.90;;;;;;5037931;28;20022;-83
2022/09/03 04:16:08;;;;;;;4.55;2.30;;;12.70;99.90;;;;;;5034720;28;20041;-81
2022/09/03 04:18:36;;;;;;;10.27;3.35;;;12.70;99.90;;;;;;5028369;28;20050;-83
2022/09/03 04:21:05;;;;;;;5.65;2.85;;;12.70;99.90;;;;;;5028515;28;20029;-82
2022/09/03 04:23:39;;;;;;;10.43;3.28;;;12.70;99.90;;;;;;5029115;28;20089;-82
2022/09/03 04:26:07;;;;;;;5.75;3.25;;;12.70;99.90;;;;;;5031671;28;20100;-82
2022/09/03 04:28:33;;;;;;;6.38;2.90;;;12.60;99.90;;;;;;5013229;28;20102;-81
2022/09/03 04:31:04;;;;;;;5.13;3.03;;;12.70;99.90;;;;;;5037554;28;20038;-83
2022/09/03 04:33:32;;;;;;;9.93;2.97;;;12.70;99.90;;;;;;5027772;28;20433;-82
2022/09/03 04:36:02;;;;;;;5.35;3.08;;;12.70;99.90;;;;;;5020089;28;20080;-82
2022/09/03 04:38:30;;;;;;;6.05;3.17;;;12.70;99.90;;;;;;5019587;28;20061;-83
2022/09/03 04:40:56;;;;;;;4.63;3.03;;;12.70;99.90;;;;;;5019681;28;20032;-82
2022/09/03 04:43:22;;;;;;;8.13;3.08;;;12.70;99.90;;;;;;5019902;28;20085;-81
2022/09/03 04:45:47;;;;;;;7.50;3.35;;;12.70;99.90;;;;;;5023708;28;20444;-82
2022/09/03 04:48:13;;;;;;;4.80;3.25;;;12.80;99.90;;;;;;5023714;28;20132;-82
2022/09/03 04:50:40;;;;;;;6.80;3.10;;;12.80;99.90;;;;;;5024105;28;20018;-82
2022/09/03 04:53:06;;;;;;;9.95;3.55;;;12.80;99.90;;;;;;5023445;28;20040;-82
2022/09/03 04:55:36;;;;;;;4.72;3.00;;;12.80;99.90;;;;;;5023408;28;20092;-82
2022/09/03 04:58:02;;;;;;;8.90;3.22;;;12.90;99.90;;;;;;5033867;28;20037;-81
2022/09/03 05:00:28;;;;;;;7.57;3.45;;;12.80;99.90;;;;;;5026517;28;20421;-84
2022/09/03 05:02:54;;;;;;;5.97;3.53;;;12.90;99.90;;;;;;5026079;28;20030;-83
2022/09/03 05:05:19;;;;;;;6.90;3.03;;;13.00;99.90;;;;;;5036753;28;20045;-82
2022/09/03 05:07:46;;;;;;;7.07;3.20;;;13.00;99.90;;;;;;5036122;28;20030;-82
2022/09/03 05:10:19;;;;;;;10.57;3.20;;;13.00;99.90;;;;;;5036503;28;20022;-80
2022/09/03 05:12:56;;;;;;;11.77;3.42;;;13.10;99.90;;;;;;5035023;28;20044;-83
2022/09/03 05:15:22;;;;;;;6.65;3.22;;;13.20;99.90;;;;;;5037371;28;20049;-82
2022/09/03 05:17:51;;;;;;;6.88;3.35;;;13.20;99.90;;;;;;5041252;28;20018;-81
2022/09/03 05:20:17;;;;;;;6.30;3.45;;;13.30;99.90;;;;;;5039097;28;20085;-81
2022/09/03 05:22:43;;;;;;;6.28;3.25;;;13.30;99.90;;;;;;5034309;28;20073;-82
2022/09/03 05:25:09;;;;;;;8.85;3.72;;;13.40;99.90;;;;;;5007938;28;20025;-83
2022/09/03 05:27:34;;;;;;;4.80;2.90;;;13.50;99.90;;;;;;5040834;28;20018;-83
2022/09/03 05:30:00;;;;;;;3.90;3.20;;;13.60;99.90;;;;;;5038551;28;20053;-83
2022/09/03 05:32:30;;;;;;;10.90;3.47;;;13.60;99.90;;;;;;5038403;28;20109;-82
2022/09/03 05:34:55;;;;;;;8.23;2.85;;;13.70;99.90;;;;;;5036662;28;20124;-82
2022/09/03 05:37:22;;;;;;;8.45;3.08;;;13.80;99.90;;;;;;5026834;28;20069;-83
2022/09/03 05:39:48;;;;;;;6.15;2.90;;;13.90;99.90;;;;;;5027816;28;20030;-84
2022/09/03 05:42:14;;;;;;;6.35;3.58;;;14.00;99.90;;;;;;5027544;28;20101;-82
2022/09/03 05:44:40;;;;;;;5.10;3.22;;;14.10;99.90;;;;;;5029724;28;20037;-83
2022/09/03 05:47:06;;;;;;;9.05;3.17;;;14.20;99.90;;;;;;5034614;28;20037;-83
2022/09/03 05:49:32;;;;;;;7.68;3.65;;;14.20;99.90;;;;;;5024490;28;20026;-82
2022/09/03 05:51:57;;;;;;;8.15;3.17;;;14.30;99.90;;;;;;5024974;28;20040;-83
2022/09/03 05:54:23;;;;;;;5.13;3.00;;;14.40;99.90;;;;;;5029136;28;20042;-83
2022/09/03 05:56:49;;;;;;;6.32;2.97;;;14.50;99.90;;;;;;5035791;28;20521;-83
2022/09/03 05:59:15;;;;;;;9.45;3.55;;;14.60;99.90;;;;;;5032182;28;20107;-84
2022/09/03 06:01:43;;;;;;;7.10;2.70;;;14.70;99.90;;;;;;5009223;28;20149;-83
2022/09/03 06:04:12;;;;;;;7.93;3.10;;;14.80;99.90;;;;;;5024227;28;20117;-82
2022/09/03 06:06:42;;;;;;;4.88;3.30;;;14.80;99.90;;;;;;5025563;28;20050;-83
2022/09/03 06:09:15;;;;;;;6.22;3.15;;;15.00;99.90;;;;;;5039619;28;20030;-83
2022/09/03 06:11:41;;;;;;;9.48;3.30;;;15.00;99.90;;;;;;5022592;28;20042;-83
2022/09/03 06:14:10;;;;;;;7.35;3.33;;;15.10;99.90;;;;;;5039271;28;20094;-81
2022/09/03 06:16:41;;;;;;;9.52;3.20;;;15.10;99.90;;;;;;5036391;28;20022;-84
2022/09/03 06:19:09;;;;;;;7.40;3.30;;;15.20;99.90;;;;;;5033765;28;20029;-83
2022/09/03 06:21:51;;;;;;;5.68;3.00;;;15.20;99.90;;;;;;5019880;28;20026;-81
2022/09/03 06:24:28;;;;;;;9.82;3.13;;;15.30;99.90;;;;;;5031185;28;20048;-82
2022/09/03 06:26:56;;;;;;;10.93;3.40;;;15.50;99.90;;;;;;5034751;28;20021;-83
2022/09/03 06:29:22;;;;;;;7.82;2.90;;;15.60;99.90;;;;;;5025613;28;20399;-82
2022/09/03 06:31:47;;;;;;;9.95;3.75;;;15.70;99.90;;;;;;5031478;28;20026;-83
2022/09/03 06:34:15;;;;;;;5.55;3.03;;;16.00;99.90;;;;;;5010285;28;20022;-83
2022/09/03 06:36:40;;;;;;;12.45;3.60;;;16.10;99.90;;;;;;5006940;28;20030;-83
2022/09/03 06:39:07;;;;;;;6.63;3.47;;;16.20;99.90;;;;;;5016124;28;20025;-83
2022/09/03 06:41:34;;;;;;;12.25;3.40;;;16.30;99.90;;;;;;5032373;28;20041;-82
2022/09/03 06:44:10;;;;;;;6.75;4.45;;;16.30;99.90;;;;;;5039525;28;20022;-83
2022/09/03 06:46:37;;;;;;;40.53;16.75;;;16.30;99.90;;;;;;5027911;28;20052;-83
2022/09/03 06:49:04;;;;;;;7.30;3.83;;;16.40;99.90;;;;;;5033803;28;20018;-81
2022/09/03 06:51:31;;;;;;;7.70;4.10;;;16.50;99.90;;;;;;5036928;28;20085;-82
2022/09/03 06:54:09;;;;;;;9.43;3.63;;;16.50;99.90;;;;;;5037092;28;20045;-83
2022/09/03 06:56:38;;;;;;;11.23;3.92;;;16.50;99.90;;;;;;5036455;28;20179;-83
2022/09/03 06:59:12;;;;;;;7.97;3.72;;;16.70;99.90;;;;;;5019397;28;20058;-81
2022/09/03 07:01:39;;;;;;;6.78;3.70;;;16.80;99.90;;;;;;5038377;28;20081;-83
2022/09/03 07:04:06;;;;;;;9.65;3.88;;;16.90;99.90;;;;;;5038017;28;20037;-83
2022/09/03 07:06:38;;;;;;;6.75;3.40;;;17.00;99.90;;;;;;5034783;28;20021;-82
2022/09/03 07:09:09;;;;;;;7.10;3.55;;;17.00;99.90;;;;;;5035035;28;20025;-83
2022/09/03 07:11:37;;;;;;;6.50;3.38;;;17.00;99.90;;;;;;5035562;28;20034;-83
2022/09/03 07:14:04;;;;;;;7.30;3.22;;;17.00;99.90;;;;;;5033632;28;20029;-83
2022/09/03 07:16:35;;;;;;;6.22;3.67;;;17.10;99.90;;;;;;5025029;28;20026;-84
2022/09/03 07:19:02;;;;;;;8.38;3.50;;;17.10;99.90;;;;;;5031627;28;20380;-81
2022/09/03 07:21:30;;;;;;;9.32;3.28;;;17.10;99.90;;;;;;5026664;28;20026;-82
2022/09/03 07:23:56;;;;;;;6.85;3.38;;;17.20;99.90;;;;;;5024103;28;20509;-81
2022/09/03 07:26:25;;;;;;;7.20;3.97;;;17.30;99.90;;;;;;5026859;28;20037;-83
2022/09/03 07:28:53;;;;;;;10.00;3.50;;;17.40;99.90;;;;;;5010169;28;20021;-82
2022/09/03 07:31:30;;;;;;;6.00;3.78;;;17.50;99.90;;;;;;5035009;28;20032;-83
2022/09/03 07:34:04;;;;;;;14.57;5.45;;;17.50;99.90;;;;;;5036077;28;20053;-83
2022/09/03 07:36:36;;;;;;;11.07;3.70;;;17.60;99.90;;;;;;5023789;28;20037;-83
2022/09/03 07:39:03;;;;;;;7.60;4.20;;;17.70;99.90;;;;;;5024081;28;20053;-86
2022/09/03 07:41:31;;;;;;;7.20;3.47;;;17.70;99.90;;;;;;5022420;28;20394;-83
2022/09/03 07:43:58;;;;;;;9.52;4.03;;;17.80;99.90;;;;;;5021451;28;20049;-83
2022/09/03 07:46:26;;;;;;;7.03;3.45;;;18.10;99.90;;;;;;5031145;28;20029;-83
2022/09/03 07:48:56;;;;;;;5.25;3.10;;;18.10;99.90;;;;;;5024022;28;20034;-83
2022/09/03 07:51:25;;;;;;;7.00;3.30;;;18.30;99.90;;;;;;5004213;28;20085;-84
2022/09/03 07:53:55;;;;;;;6.07;2.95;;;18.40;99.90;;;;;;5022024;28;20026;-83
2022/09/03 07:56:21;;;;;;;9.60;3.33;;;18.40;99.90;;;;;;5021863;28;20045;-84
2022/09/03 07:58:47;;;;;;;10.23;3.38;;;18.40;99.90;;;;;;5021590;28;20109;-83
2022/09/03 08:01:15;;;;;;;5.90;2.85;;;18.40;99.90;;;;;;5004957;28;20045;-84
2022/09/03 08:03:43;;;;;;;7.03;3.13;;;18.40;99.90;;;;;;5004823;28;20465;-83
2022/09/03 08:06:10;;;;;;;8.73;3.25;;;18.50;99.90;;;;;;5031075;28;20018;-82
2022/09/03 08:08:36;;;;;;;4.65;2.83;;;18.60;99.90;;;;;;5034668;28;20025;-82
2022/09/03 08:11:09;;;;;;;6.40;3.00;;;18.80;99.90;;;;;;5034787;28;20022;-82
2022/09/03 08:13:43;;;;;;;9.38;3.20;;;18.80;99.90;;;;;;5034771;28;20026;-81
2022/09/03 08:16:11;;;;;;;8.15;3.70;;;18.90;99.90;;;;;;5034609;28;20018;-83
2022/09/03 08:18:37;;;;;;;8.15;4.03;;;18.80;99.90;;;;;;5034729;28;20020;-84
2022/09/03 08:21:09;;;;;;;8.07;4.10;;;18.70;99.90;;;;;;5036998;28;20029;-82
2022/09/03 08:23:40;;;;;;;5.80;3.03;;;18.90;99.90;;;;;;5012833;28;20037;-82
2022/09/03 08:26:06;;;;;;;8.65;2.70;;;19.10;99.90;;;;;;5025525;28;20068;-83
2022/09/03 08:28:33;;;;;;;6.15;2.85;;;19.30;99.90;;;;;;5023915;28;20057;-82
2022/09/03 08:45:00;;;;;;;5.93;2.65;;;20.20;99.90;;;;;;3910281;26;20053;-85
2022/09/03 09:01:13;;;;;;;5.55;2.92;;;21.00;99.90;;;;;;4874088;29;20099;-84
2022/09/03 09:05:20;;;;;;;7.70;2.58;;;21.20;99.90;;;;;;4898046;29;20060;-86
2022/09/03 09:09:02;;;;;;;5.72;2.65;;;21.20;99.90;;;;;;4942738;29;20027;-86
2022/09/03 09:12:37;;;;;;;6.53;2.55;;;21.40;99.90;;;;;;4933872;29;20047;-87
2022/09/03 09:15:47;;;;;;;4.38;2.55;;;21.70;99.90;;;;;;4873875;29;20048;-85
2022/09/03 09:19:51;;;;;;;10.10;2.92;;;22.10;99.90;;;;;;4887257;29;20054;-86
2022/09/03 09:23:30;;;;;;;;;;;;;;;;;;;;;
2022/09/03 09:30:58;;;;;;;8.70;2.08;;;24.70;99.20;;;;;;4937403;28;20046;-86
2022/09/03 09:42:18;;;;;;;5.78;2.40;;;27.60;92.10;;;;;;4948002;29;20107;-85
2022/09/03 09:46:11;;;;;;;;;;;;;;;;;;;;;
2022/09/03 09:53:44;;;;;;;;;;;;;;;;;;;;;
2022/09/03 09:57:47;;;;;;;;;;;;;;;;;;;;;
2022/09/03 10:08:53;;;;;;;5.75;2.10;;;33.50;72.70;;;;;;4985433;28;20113;-88
2022/09/03 10:12:46;;;;;;;4.20;1.90;;;34.20;69.80;;;;;;4982809;28;20130;-85
2022/09/03 10:24:38;;;;;;;;;;;;;;;;;;;;;
2022/09/03 10:31:43;;;;;;;6.32;2.15;;;34.90;60.00;;;;;;4891628;29;20633;-89
2022/09/03 10:35:25;;;;;;;5.00;2.22;;;34.50;60.70;;;;;;4880206;29;20433;-86
2022/09/03 10:51:04;;;;;;;;;;;;;;;;;;;;;
2022/09/03 11:03:11;;;;;;;4.70;1.98;;;38.10;55.70;;;;;;4888643;29;20045;-86
2022/09/03 11:53:00;;;;;;;;;;;;;;;;;;;;;
2022/09/03 11:56:42;;;;;;;2.95;1.90;;;38.70;53.10;;;;;;5034665;28;20052;-84
2022/09/03 12:12:16;;;;;;;;;;;;;;;;;;;;;
2022/09/03 12:19:22;;;;;;;4.30;1.70;;;38.10;51.80;;;;;;5005886;28;20176;-87
2022/09/03 12:26:52;;;;;;;8.18;3.45;;;38.10;51.70;;;;;;5001708;28;20040;-86
2022/09/03 12:30:29;;;;;;;6.00;1.92;;;37.60;52.30;;;;;;5027361;28;20061;-87
2022/09/03 12:34:06;;;;;;;2.92;1.90;;;36.30;53.00;;;;;;5024554;28;20068;-85
2022/09/03 12:48:14;;;;;;;7.15;2.25;;;37.40;52.40;;;;;;4969282;28;20097;-86
2022/09/03 12:59:17;;;;;;;;;;;;;;;;;;;;;
2022/09/03 13:02:41;;;;;;;2.35;2.00;;;35.60;53.40;;;;;;5027658;28;20046;-84
2022/09/03 13:06:12;;;;;;;5.93;1.90;;;36.10;53.30;;;;;;5036942;28;20036;-86
2022/09/03 13:34:24;;;;;;;4.38;2.00;;;36.60;51.80;;;;;;4875027;29;20048;-86
2022/09/03 14:00:29;;;;;;;5.70;1.77;;;36.00;52.90;;;;;;5012586;28;20088;-86
2022/09/03 14:08:07;;;;;;;;;;;;;;;;;;;;;
2022/09/03 14:12:11;;;;;;;1.83;1.50;;;34.00;54.40;;;;;;5024909;28;20026;-85
2022/09/03 14:19:48;;;;;;;5.15;2.10;;;33.00;56.00;;;;;;5029877;28;20030;-86
2022/09/03 14:27:11;;;;;;;2.28;1.65;;;35.20;53.80;;;;;;5027962;28;20026;-85
2022/09/03 14:30:29;;;;;;;3.15;1.77;;;35.50;53.50;;;;;;4999962;28;20105;-84
2022/09/03 14:33:51;;;;;;;5.70;1.60;;;35.20;53.50;;;;;;5071135;22;20053;-83
2022/09/03 14:36:29;;;;;;;7.22;2.45;;;33.70;55.10;;;;;;5035810;28;20077;-82
2022/09/03 14:39:03;;;;;;;4.72;2.33;;;32.10;56.70;;;;;;5064290;28;20101;-80
2022/09/03 14:42:06;;;;;;;5.82;2.17;;;31.50;57.80;;;;;;5048499;28;20029;-82
2022/09/03 14:44:46;;;;;;;3.83;1.98;;;30.70;59.10;;;;;;5079021;28;20029;-82
2022/09/03 14:47:47;;;;;;;4.60;2.08;;;30.20;59.60;;;;;;5080302;28;20155;-82
2022/09/03 14:50:53;;;;;;;3.47;2.00;;;29.80;60.30;;;;;;5079181;28;20081;-83
2022/09/03 14:53:22;;;;;;;4.13;1.95;;;29.10;61.40;;;;;;5080394;28;20029;-84
2022/09/03 14:56:00;;;;;;;5.32;2.20;;;28.80;62.00;;;;;;5062830;28;20033;-84
2022/09/03 14:58:44;;;;;;;3.40;2.47;;;28.50;62.50;;;;;;5078877;28;20032;-83
2022/09/03 15:01:25;;;;;;;3.88;1.88;;;28.20;63.20;;;;;;5079782;28;20064;-83
2022/09/03 15:03:54;;;;;;;6.38;2.72;;;28.00;63.70;;;;;;5078259;28;20029;-84
2022/09/03 15:06:26;;;;;;;4.35;2.03;;;27.90;63.70;;;;;;5078326;28;20127;-83
2022/09/03 15:09:13;;;;;;;4.35;2.35;;;27.80;64.00;;;;;;5078324;28;20024;-85
2022/09/03 15:12:04;;;;;;;2.65;1.90;;;27.80;64.40;;;;;;5078661;28;20040;-84
2022/09/03 15:14:49;;;;;;;2.55;1.83;;;27.70;64.50;;;;;;5078946;28;20029;-83
2022/09/03 15:17:29;;;;;;;7.25;2.65;;;27.60;64.80;;;;;;5061124;28;20392;-84
2022/09/03 15:20:34;;;;;;;7.53;3.92;;;27.40;65.00;;;;;;5078064;28;20021;-84
2022/09/03 15:23:18;;;;;;;8.40;2.58;;;27.00;65.80;;;;;;5059869;28;20028;-84
2022/09/03 15:26:20;;;;;;;4.68;2.45;;;26.90;66.70;;;;;;5079006;28;20051;-84
2022/09/03 15:29:23;;;;;;;8.85;4.53;;;26.80;67.00;;;;;;5077724;28;20048;-83
2022/09/03 15:32:12;;;;;;;3.53;2.13;;;26.60;67.00;;;;;;5083459;28;20093;-83
2022/09/03 15:35:06;;;;;;;6.00;3.22;;;26.60;67.40;;;;;;5054041;28;20044;-85
2022/09/03 15:37:51;;;;;;;11.80;4.72;;;26.40;67.70;;;;;;5079520;28;20071;-84
2022/09/03 15:40:33;;;;;;;9.50;4.53;;;26.10;68.30;;;;;;5079895;28;20036;-85
2022/09/03 15:43:22;;;;;;;8.95;3.97;;;26.00;69.10;;;;;;5081279;28;20107;-85
2022/09/03 15:45:55;;;;;;;7.55;5.50;;;25.70;69.50;;;;;;5079786;28;20545;-84
2022/09/03 15:48:30;;;;;;;4.85;3.20;;;25.50;69.80;;;;;;5079169;28;20322;-85
2022/09/03 15:51:42;;;;;;;7.30;3.85;;;25.40;70.50;;;;;;5078777;28;20025;-84
2022/09/03 15:54:36;;;;;;;10.77;3.00;;;25.40;71.30;;;;;;4976654;28;20129;-82
2022/09/03 15:57:51;;;;;;;5.00;2.10;;;25.20;71.40;;;;;;5068646;28;20123;-84
2022/09/03 16:00:19;;;;;;;4.68;2.50;;;25.20;72.00;;;;;;5078488;28;20033;-84
2022/09/03 16:03:06;;;;;;;4.25;2.10;;;25.10;72.20;;;;;;5079721;28;20484;-84
2022/09/03 16:05:49;;;;;;;7.43;4.07;;;25.10;72.60;;;;;;5045372;28;20036;-84
2022/09/03 16:08:40;;;;;;;4.47;3.33;;;25.00;72.60;;;;;;5057012;28;20013;-84
2022/09/03 16:11:12;;;;;;;4.70;2.10;;;25.00;72.60;;;;;;5062671;28;20059;-85
2022/09/03 16:13:50;;;;;;;4.25;2.28;;;25.00;73.00;;;;;;5095989;28;20039;-83
2022/09/03 16:16:42;;;;;;;5.63;2.33;;;24.90;73.10;;;;;;5096369;28;20084;-85
2022/09/03 16:19:26;;;;;;;6.35;3.20;;;24.90;73.40;;;;;;5097014;28;20032;-84
2022/09/03 16:22:06;;;;;;;7.25;3.47;;;24.80;73.50;;;;;;5096671;28;20032;-84
2022/09/03 16:24:37;;;;;;;11.60;4.75;;;24.80;73.80;;;;;;5096051;28;20027;-84
2022/09/03 16:27:14;;;;;;;7.93;3.72;;;24.70;73.30;;;;;;5084906;28;20024;-84
2022/09/03 16:29:40;;;;;;;7.55;3.47;;;24.70;73.70;;;;;;5080073;28;20028;-83
2022/09/03 16:32:25;;;;;;;6.38;2.92;;;24.60;74.00;;;;;;5083087;28;20031;-84
2022/09/03 16:35:12;;;;;;;4.28;2.88;;;24.50;74.30;;;;;;5090363;28;20047;-83
2022/09/03 16:38:13;;;;;;;7.20;2.88;;;24.40;74.80;;;;;;5063494;28;20067;-84
2022/09/03 16:41:14;;;;;;;7.45;4.10;;;24.40;75.20;;;;;;5076753;28;20028;-84
2022/09/03 16:43:43;;;;;;;5.15;3.33;;;24.20;75.40;;;;;;5027280;28;20044;-83
2022/09/03 16:46:23;;;;;;;7.32;3.55;;;24.20;75.80;;;;;;5077284;28;20020;-83
2022/09/03 16:49:10;;;;;;;8.73;4.22;;;24.10;76.10;;;;;;5077046;28;20048;-83
2022/09/03 16:51:40;;;;;;;10.60;3.63;;;24.00;76.50;;;;;;5077883;28;20391;-85
2022/09/03 16:54:25;;;;;;;9.13;3.03;;;23.90;77.10;;;;;;5080729;28;20024;-83
2022/09/03 16:57:13;;;;;;;12.00;2.80;;;23.90;77.40;;;;;;5081178;28;20033;-83
2022/09/03 17:00:01;;;;;;;8.63;2.97;;;23.80;78.00;;;;;;5060349;28;20029;-82
2022/09/03 17:02:31;;;;;;;7.70;2.70;;;23.70;78.80;;;;;;5080145;28;20221;-84
2022/09/03 17:05:05;;;;;;;4.47;2.30;;;23.60;79.50;;;;;;5064005;28;20094;-83
2022/09/03 17:07:31;;;;;;;5.75;2.25;;;23.50;80.20;;;;;;5078622;28;20096;-83
2022/09/03 17:10:22;;;;;;;4.57;2.80;;;23.40;81.00;;;;;;5060526;28;20060;-83
2022/09/03 17:13:13;;;;;;;12.57;3.25;;;23.30;81.20;;;;;;5059794;28;20062;-83
2022/09/03 17:15:55;;;;;;;5.35;3.72;;;23.20;81.90;;;;;;5058708;28;20107;-83
2022/09/03 17:18:28;;;;;;;6.85;2.83;;;23.20;82.10;;;;;;5062113;28;20028;-83
2022/09/03 17:21:31;;;;;;;7.93;3.15;;;23.10;82.70;;;;;;5081464;28;20480;-86
2022/09/03 17:24:30;;;;;;;6.75;3.00;;;23.00;83.10;;;;;;5077290;28;20040;-84
2022/09/03 17:27:06;;;;;;;8.95;2.72;;;23.00;83.40;;;;;;5022553;28;20047;-82
2022/09/03 17:29:46;;;;;;;13.63;4.03;;;22.90;83.80;;;;;;5046336;28;20039;-81
2022/09/03 17:32:30;;;;;;;8.18;3.53;;;22.90;83.90;;;;;;5080300;28;20032;-83
2022/09/03 17:35:18;;;;;;;6.70;3.33;;;22.90;84.00;;;;;;5060154;28;20082;-84
2022/09/03 17:38:09;;;;;;;8.00;3.40;;;22.80;83.90;;;;;;5078241;28;20031;-82
2022/09/03 17:41:03;;;;;;;4.35;2.83;;;22.80;84.20;;;;;;5078004;28;20024;-82
2022/09/03 17:43:35;;;;;;;4.88;2.38;;;22.80;85.00;;;;;;5060389;28;20024;-83
2022/09/03 17:46:45;;;;;;;6.13;2.60;;;22.70;86.00;;;;;;5077977;28;20028;-84
2022/09/03 17:49:24;;;;;;;8.15;2.25;;;22.70;86.50;;;;;;4975715;28;20027;-86
2022/09/03 17:51:56;;;;;;;6.15;2.22;;;22.60;87.10;;;;;;5074236;28;20094;-83
2022/09/03 17:54:22;;;;;;;10.45;3.08;;;22.50;87.50;;;;;;5083025;28;20032;-84
2022/09/03 17:57:23;;;;;;;5.25;2.30;;;22.50;87.90;;;;;;5079174;28;20043;-84
2022/09/03 18:00:07;;;;;;;7.97;2.45;;;22.40;88.50;;;;;;5083648;28;20067;-84
2022/09/03 18:02:57;;;;;;;5.22;1.90;;;22.40;88.90;;;;;;5080151;28;20404;-86